createdAt,value
2019-05-22T00:01:29.824Z,11.70
2019-05-22T00:04:22.680Z,11.70
2019-05-22T00:06:51.747Z,11.60
2019-05-22T00:09:25.544Z,11.50
2019-05-22T00:11:56.045Z,11.50
2019-05-22T00:14:27.421Z,11.40
2019-05-22T00:16:55.949Z,11.30
2019-05-22T00:19:23.750Z,11.30
2019-05-22T00:22:00.048Z,11.30
2019-05-22T00:24:29.058Z,11.20
2019-05-22T00:26:57.637Z,11.20
2019-05-22T00:29:27.995Z,11.20
2019-05-22T00:31:56.244Z,11.00
2019-05-22T00:34:25.525Z,10.90
2019-05-22T00:36:54.569Z,10.80
2019-05-22T00:39:23.845Z,10.80
2019-05-22T00:41:52.637Z,10.70
2019-05-22T00:44:20.627Z,10.70
2019-05-22T00:46:51.157Z,10.70
2019-05-22T00:49:21.636Z,10.70
2019-05-22T00:52:24.269Z,10.70
2019-05-22T00:54:57.837Z,10.70
2019-05-22T00:57:34.557Z,10.70
2019-05-22T01:00:21.183Z,10.70
2019-05-22T01:02:50.514Z,10.70
2019-05-22T01:05:21.518Z,10.70
2019-05-22T01:07:51.680Z,10.60
2019-05-22T01:10:23.695Z,10.60
2019-05-22T01:12:55.647Z,10.60
2019-05-22T01:15:26.241Z,10.60
2019-05-22T01:17:54.340Z,10.60
2019-05-22T01:20:25.745Z,10.50
2019-05-22T01:22:57.171Z,10.50
2019-05-22T01:25:26.651Z,10.60
2019-05-22T01:27:55.817Z,10.60
2019-05-22T01:30:34.808Z,10.40
2019-05-22T01:33:08.198Z,10.30
2019-05-22T01:35:36.543Z,10.30
2019-05-22T01:38:06.201Z,10.30
2019-05-22T01:40:41.855Z,10.30
2019-05-22T01:43:11.379Z,10.30
2019-05-22T01:45:39.389Z,10.20
2019-05-22T01:48:11.756Z,10.20
2019-05-22T01:50:47.602Z,10.20
2019-05-22T01:53:18.720Z,10.20
2019-05-22T01:55:48.237Z,10.20
2019-05-22T01:58:17.873Z,10.20
2019-05-22T02:00:47.195Z,10.20
2019-05-22T02:03:17.044Z,10.30
2019-05-22T02:05:47.376Z,10.30
2019-05-22T02:08:15.253Z,10.30
2019-05-22T02:10:45.364Z,10.20
2019-05-22T02:13:16.355Z,10.20
2019-05-22T02:15:45.733Z,10.20
2019-05-22T02:18:15.844Z,10.10
2019-05-22T02:20:45.840Z,10.00
2019-05-22T02:23:13.956Z,10.00
2019-05-22T02:25:42.048Z,9.90
2019-05-22T02:28:09.853Z,9.90
2019-05-22T02:30:40.109Z,9.80
2019-05-22T02:33:10.377Z,9.70
2019-05-22T02:35:39.224Z,9.60
2019-05-22T02:38:07.904Z,9.60
2019-05-22T02:40:38.486Z,9.50
2019-05-22T02:43:08.611Z,9.50
2019-05-22T02:45:37.002Z,9.50
2019-05-22T02:48:07.605Z,9.50
2019-05-22T02:50:37.116Z,9.60
2019-05-22T02:53:08.910Z,9.50
2019-05-22T02:55:37.293Z,9.50
2019-05-22T02:58:05.974Z,9.50
2019-05-22T03:00:50.418Z,9.40
2019-05-22T03:03:19.929Z,9.40
2019-05-22T03:05:48.913Z,9.30
2019-05-22T03:08:19.434Z,9.40
2019-05-22T03:11:03.734Z,9.40
2019-05-22T03:14:10.124Z,9.30
2019-05-22T03:17:00.004Z,9.30
2019-05-22T03:19:36.850Z,9.20
2019-05-22T03:22:24.604Z,9.20
2019-05-22T03:24:54.329Z,9.10
2019-05-22T03:27:42.836Z,9.10
2019-05-22T03:30:26.298Z,9.10
2019-05-22T03:32:55.953Z,9.20
2019-05-22T03:35:25.654Z,9.40
2019-05-22T03:37:56.500Z,9.40
2019-05-22T03:40:27.594Z,9.50
2019-05-22T03:42:55.704Z,9.50
2019-05-22T03:45:24.744Z,9.60
2019-05-22T03:48:08.977Z,9.60
2019-05-22T03:50:40.125Z,9.60
2019-05-22T03:53:15.871Z,9.60
2019-05-22T03:55:44.268Z,9.50
2019-05-22T03:58:12.614Z,9.50
2019-05-22T04:00:44.724Z,9.60
2019-05-22T04:03:14.734Z,9.50
2019-05-22T04:05:43.881Z,9.70
2019-05-22T04:08:13.113Z,9.70
2019-05-22T04:10:58.646Z,9.70
2019-05-22T04:13:27.103Z,9.60
2019-05-22T04:15:55.096Z,9.70
2019-05-22T04:18:23.991Z,9.70
2019-05-22T04:20:55.016Z,9.60
2019-05-22T04:23:22.847Z,9.60
2019-05-22T04:25:53.369Z,9.60
2019-05-22T04:28:21.121Z,9.60
2019-05-22T04:30:49.208Z,9.50
2019-05-22T04:33:18.124Z,9.60
2019-05-22T04:35:48.627Z,9.60
2019-05-22T04:38:17.263Z,9.60
2019-05-22T04:40:46.851Z,9.80
2019-05-22T04:43:19.877Z,9.90
2019-05-22T04:45:46.261Z,9.90
2019-05-22T04:48:18.315Z,10.00
2019-05-22T04:50:46.704Z,10.20
2019-05-22T04:53:15.606Z,10.50
2019-05-22T04:55:45.103Z,10.70
2019-05-22T04:58:16.923Z,10.80
2019-05-22T05:00:45.721Z,10.90
2019-05-22T05:03:15.086Z,11.20
2019-05-22T05:05:45.402Z,11.50
2019-05-22T05:08:14.611Z,11.80
2019-05-22T05:10:44.753Z,12.20
2019-05-22T05:13:13.555Z,12.50
2019-05-22T05:15:41.567Z,12.90
2019-05-22T05:18:09.263Z,13.20
2019-05-22T05:20:37.670Z,13.30
2019-05-22T05:23:05.511Z,13.40
2019-05-22T05:25:33.615Z,13.40
2019-05-22T05:28:04.668Z,13.30
2019-05-22T05:30:32.669Z,13.00
2019-05-22T05:33:03.617Z,12.80
2019-05-22T05:35:32.076Z,12.60
2019-05-22T05:38:02.808Z,12.50
2019-05-22T05:40:37.473Z,12.40
2019-05-22T05:43:07.918Z,12.50
2019-05-22T05:45:38.352Z,12.40
2019-05-22T05:48:08.591Z,12.40
2019-05-22T05:50:40.636Z,12.30
2019-05-22T05:53:16.204Z,12.30
2019-05-22T05:56:13.572Z,12.20
2019-05-22T05:58:42.076Z,12.20
2019-05-22T06:01:25.725Z,12.40
2019-05-22T06:03:55.245Z,12.60
2019-05-22T06:07:12.091Z,12.70
2019-05-22T06:09:40.313Z,12.90
2019-05-22T06:12:09.796Z,13.30
2019-05-22T06:14:39.128Z,13.60
2019-05-22T06:17:52.121Z,13.90
2019-05-22T06:20:22.603Z,14.50
2019-05-22T06:23:45.684Z,15.70
2019-05-22T06:26:51.002Z,16.50
2019-05-22T06:29:21.268Z,17.10
2019-05-22T06:32:15.539Z,18.00
2019-05-22T06:34:43.342Z,18.40
2019-05-22T06:37:26.557Z,18.80
2019-05-22T06:39:55.331Z,19.10
2019-05-22T06:42:23.457Z,19.50
2019-05-22T06:44:51.825Z,19.60
2019-05-22T06:47:22.760Z,19.80
2019-05-22T06:50:00.817Z,20.30
2019-05-22T06:52:28.728Z,20.20
2019-05-22T06:54:57.116Z,21.00
2019-05-22T06:57:28.980Z,21.00
2019-05-22T07:00:12.117Z,21.10
2019-05-22T07:02:30.383Z,21.70
2019-05-22T07:04:58.179Z,22.10
2019-05-22T07:07:27.338Z,22.30
2019-05-22T07:09:56.340Z,22.50
2019-05-22T07:12:26.607Z,22.70
2019-05-22T07:15:22.570Z,22.60
2019-05-22T07:17:52.699Z,22.70
2019-05-22T07:20:21.169Z,22.00
2019-05-22T07:22:48.861Z,21.70
2019-05-22T07:25:18.575Z,21.50
2019-05-22T07:27:47.279Z,21.50
2019-05-22T07:30:15.697Z,21.50
2019-05-22T07:32:43.803Z,21.90
2019-05-22T07:35:12.451Z,22.60
2019-05-22T07:37:42.039Z,23.20
2019-05-22T07:40:10.728Z,23.80
2019-05-22T07:42:42.168Z,24.20
2019-05-22T07:45:11.708Z,24.40
2019-05-22T07:47:42.115Z,24.20
2019-05-22T07:50:12.201Z,24.70
2019-05-22T07:52:40.400Z,25.10
2019-05-22T07:55:08.192Z,25.20
2019-05-22T07:57:39.701Z,25.20
2019-05-22T08:00:08.597Z,25.80
2019-05-22T08:02:40.945Z,26.00
2019-05-22T08:05:10.077Z,25.80
2019-05-22T08:07:39.538Z,26.20
2019-05-22T08:10:12.511Z,26.20
2019-05-22T08:12:41.392Z,25.90
2019-05-22T08:15:11.816Z,25.50
2019-05-22T08:17:40.345Z,25.20
2019-05-22T08:20:09.953Z,25.10
2019-05-22T08:22:39.880Z,25.20
2019-05-22T08:25:09.925Z,25.60
2019-05-22T08:27:39.060Z,25.30
2019-05-22T08:30:08.649Z,24.40
2019-05-22T08:32:37.845Z,24.30
2019-05-22T08:35:08.164Z,24.50
2019-05-22T08:37:38.053Z,24.70
2019-05-22T08:40:08.641Z,25.10
2019-05-22T08:42:38.646Z,25.60
2019-05-22T08:45:06.909Z,25.90
2019-05-22T08:47:35.080Z,23.80
2019-05-22T08:50:03.772Z,23.80
2019-05-22T08:52:31.756Z,23.80
2019-05-22T08:55:14.706Z,23.70
2019-05-22T08:57:43.098Z,24.10
2019-05-22T09:00:13.849Z,25.10
2019-05-22T09:02:42.145Z,25.60
2019-05-22T09:05:11.993Z,26.20
2019-05-22T09:07:43.269Z,26.80
2019-05-22T09:10:12.074Z,27.40
2019-05-22T09:12:51.598Z,27.10
2019-05-22T09:15:19.888Z,26.80
2019-05-22T09:17:47.999Z,26.80
2019-05-22T09:20:18.750Z,25.40
2019-05-22T09:22:46.540Z,24.70
2019-05-22T09:25:15.730Z,24.60
2019-05-22T09:27:44.575Z,24.50
2019-05-22T09:30:12.916Z,24.90
2019-05-22T09:32:40.633Z,24.70
2019-05-22T09:35:08.440Z,24.40
2019-05-22T09:37:36.458Z,23.90
2019-05-22T09:40:05.379Z,23.30
2019-05-22T09:42:35.264Z,23.20
2019-05-22T09:45:05.076Z,23.70
2019-05-22T09:47:35.601Z,23.40
2019-05-22T09:50:05.066Z,23.30
2019-05-22T09:52:33.712Z,22.50
2019-05-22T09:55:01.510Z,22.50
2019-05-22T09:57:39.488Z,22.90
2019-05-22T10:00:14.457Z,23.10
2019-05-22T10:02:42.535Z,23.70
2019-05-22T10:05:13.332Z,23.60
2019-05-22T10:07:57.948Z,23.60
2019-05-22T10:10:12.234Z,23.40
2019-05-22T10:12:40.076Z,22.80
2019-05-22T10:15:27.452Z,22.50
2019-05-22T10:17:59.599Z,23.00
2019-05-22T10:20:36.010Z,23.50
2019-05-22T10:23:15.485Z,24.00
2019-05-22T10:25:36.908Z,23.60
2019-05-22T10:28:06.427Z,23.30
2019-05-22T10:30:36.717Z,22.80
2019-05-22T10:33:28.591Z,22.10
2019-05-22T10:35:59.937Z,21.90
2019-05-22T10:38:28.039Z,22.40
2019-05-22T10:40:59.475Z,22.40
2019-05-22T10:43:35.075Z,23.00
2019-05-22T10:46:08.614Z,23.20
2019-05-22T10:48:45.834Z,23.10
2019-05-22T10:51:13.737Z,23.40
2019-05-22T10:53:42.376Z,23.20
2019-05-22T10:56:12.577Z,23.50
2019-05-22T10:58:40.305Z,23.40
2019-05-22T11:01:08.547Z,23.30
2019-05-22T11:03:37.176Z,23.30
2019-05-22T11:06:08.021Z,23.10
2019-05-22T11:08:36.146Z,22.50
2019-05-22T11:11:04.152Z,22.40
2019-05-22T11:13:34.221Z,23.00
2019-05-22T11:16:02.030Z,23.40
2019-05-22T11:18:30.522Z,23.30
2019-05-22T11:20:58.946Z,22.50
2019-05-22T11:23:27.802Z,22.30
2019-05-22T11:25:56.311Z,22.50
2019-05-22T11:28:25.779Z,22.90
2019-05-22T11:30:53.631Z,23.40
2019-05-22T11:33:21.334Z,23.70
2019-05-22T11:35:49.241Z,23.40
2019-05-22T11:38:18.499Z,22.90
2019-05-22T11:40:46.534Z,22.80
2019-05-22T11:43:19.624Z,23.10
2019-05-22T11:45:47.193Z,23.70
2019-05-22T11:48:15.426Z,23.40
2019-05-22T11:50:44.456Z,23.60
2019-05-22T11:53:13.394Z,23.40
2019-05-22T11:55:45.597Z,23.20
2019-05-22T11:58:11.448Z,22.10
2019-05-22T12:00:40.713Z,22.00
2019-05-22T12:03:11.958Z,22.70
2019-05-22T12:05:40.848Z,23.00
2019-05-22T12:08:10.026Z,22.50
2019-05-22T12:10:38.114Z,22.30
2019-05-22T12:13:20.350Z,22.50
2019-05-22T12:15:49.362Z,23.00
2019-05-22T12:18:18.542Z,22.30
2019-05-22T12:20:46.225Z,22.60
2019-05-22T12:23:16.858Z,22.70
2019-05-22T12:25:49.301Z,22.10
2019-05-22T12:28:32.868Z,22.10
2019-05-22T12:31:13.537Z,22.10
2019-05-22T12:33:41.524Z,21.80
2019-05-22T12:36:13.575Z,21.30
2019-05-22T12:38:42.386Z,21.50
2019-05-22T12:41:13.912Z,21.70
2019-05-22T12:43:44.788Z,21.60
2019-05-22T12:46:12.783Z,21.60
2019-05-22T12:48:43.020Z,22.00
2019-05-22T12:51:11.101Z,22.10
2019-05-22T12:53:39.476Z,22.30
2019-05-22T12:56:07.471Z,22.70
2019-05-22T12:58:36.697Z,22.80
2019-05-22T13:01:09.269Z,23.30
2019-05-22T13:03:38.735Z,23.30
2019-05-22T13:06:09.677Z,23.30
2019-05-22T13:08:38.438Z,23.00
2019-05-22T13:11:08.963Z,22.20
2019-05-22T13:13:37.463Z,21.70
2019-05-22T13:16:23.222Z,21.70
2019-05-22T13:18:56.414Z,21.80
2019-05-22T13:21:33.473Z,21.80
2019-05-22T13:24:13.022Z,21.90
2019-05-22T13:26:41.508Z,21.90
2019-05-22T13:29:12.585Z,21.70
2019-05-22T13:31:42.583Z,21.80
2019-05-22T13:34:15.243Z,22.00
2019-05-22T13:36:49.317Z,22.10
2019-05-22T13:39:19.635Z,22.10
2019-05-22T13:41:53.271Z,22.20
2019-05-22T13:44:27.666Z,22.10
2019-05-22T13:46:56.955Z,22.30
2019-05-22T13:49:30.204Z,22.40
2019-05-22T13:51:58.910Z,22.30
2019-05-22T13:54:27.439Z,22.60
2019-05-22T13:56:55.455Z,22.20
2019-05-22T13:59:23.828Z,22.40
2019-05-22T14:01:52.442Z,22.30
2019-05-22T14:04:20.988Z,22.00
2019-05-22T14:06:49.299Z,21.80
2019-05-22T14:09:21.350Z,21.70
2019-05-22T14:11:49.392Z,21.50
2019-05-22T14:14:17.890Z,21.50
2019-05-22T14:16:49.230Z,21.70
2019-05-22T14:19:15.983Z,21.80
2019-05-22T14:21:50.839Z,22.00
2019-05-22T14:24:13.747Z,22.10
2019-05-22T14:26:41.555Z,22.50
2019-05-22T14:29:09.552Z,22.80
2019-05-22T14:31:42.128Z,22.90
2019-05-22T14:34:11.042Z,22.90
2019-05-22T14:36:40.046Z,22.60
2019-05-22T14:39:10.007Z,22.50
2019-05-22T14:41:38.363Z,22.50
2019-05-22T14:44:06.570Z,22.50
2019-05-22T14:46:35.374Z,22.30
2019-05-22T14:49:03.570Z,22.60
2019-05-22T14:51:32.897Z,22.80
2019-05-22T14:54:01.360Z,22.80
2019-05-22T14:56:29.127Z,22.40
2019-05-22T14:58:56.899Z,22.50
2019-05-22T15:01:24.709Z,22.50
2019-05-22T15:03:52.552Z,22.40
2019-05-22T15:06:20.916Z,22.40
2019-05-22T15:08:49.331Z,22.20
2019-05-22T15:11:17.549Z,22.10
2019-05-22T15:13:45.874Z,22.30
2019-05-22T15:16:14.392Z,22.40
2019-05-22T15:18:42.455Z,22.30
2019-05-22T15:21:11.059Z,22.10
2019-05-22T15:23:46.004Z,22.00
2019-05-22T15:26:20.959Z,21.90
2019-05-22T15:28:50.423Z,22.00
2019-05-22T15:31:18.937Z,22.10
2019-05-22T15:33:49.303Z,22.00
2019-05-22T15:36:22.045Z,21.90
2019-05-22T15:38:54.690Z,21.60
2019-05-22T15:41:29.181Z,21.70
2019-05-22T15:43:58.917Z,21.50
2019-05-22T15:46:27.602Z,21.60
2019-05-22T15:48:56.285Z,21.70
2019-05-22T15:51:29.719Z,21.70
2019-05-22T15:54:01.909Z,21.50
2019-05-22T15:56:33.336Z,21.50
2019-05-22T15:59:04.577Z,21.30
2019-05-22T16:01:33.562Z,21.30
2019-05-22T16:04:03.825Z,21.30
2019-05-22T16:06:32.294Z,21.20
2019-05-22T16:09:03.597Z,21.10
2019-05-22T16:11:33.557Z,21.00
2019-05-22T16:14:03.268Z,21.10
2019-05-22T16:16:31.669Z,21.10
2019-05-22T16:19:03.793Z,21.10
2019-05-22T16:21:32.924Z,20.90
2019-05-22T16:24:01.539Z,20.90
2019-05-22T16:26:29.695Z,20.90
2019-05-22T16:28:59.793Z,20.80
2019-05-22T16:31:28.397Z,20.80
2019-05-22T16:33:56.113Z,20.80
2019-05-22T16:36:24.771Z,20.90
2019-05-22T16:38:55.108Z,20.90
2019-05-22T16:41:24.807Z,21.00
2019-05-22T16:43:53.505Z,21.00
2019-05-22T16:46:23.202Z,21.10
2019-05-22T16:48:51.528Z,21.10
2019-05-22T16:51:21.043Z,21.20
2019-05-22T16:53:53.429Z,21.10
2019-05-22T16:56:22.710Z,21.10
2019-05-22T16:58:52.687Z,21.10
2019-05-22T17:01:23.604Z,21.10
2019-05-22T17:03:53.837Z,21.10
2019-05-22T17:06:24.250Z,21.00
2019-05-22T17:08:54.823Z,21.00
2019-05-22T17:11:24.140Z,21.00
2019-05-22T17:13:55.473Z,20.80
2019-05-22T17:16:25.329Z,20.80
2019-05-22T17:18:53.838Z,20.80
2019-05-22T17:21:21.783Z,20.90
2019-05-22T17:23:50.091Z,21.00
2019-05-22T17:26:18.096Z,21.10
2019-05-22T17:28:47.209Z,21.00
2019-05-22T17:31:16.002Z,21.00
2019-05-22T17:33:44.096Z,20.90
2019-05-22T17:36:13.033Z,21.00
2019-05-22T17:38:41.928Z,20.90
2019-05-22T17:41:10.725Z,20.90
2019-05-22T17:43:39.946Z,20.70
2019-05-22T17:46:08.576Z,20.70
2019-05-22T17:48:39.058Z,20.70
2019-05-22T17:51:16.225Z,20.60
2019-05-22T17:53:45.613Z,20.50
2019-05-22T17:56:17.093Z,20.50
2019-05-22T17:58:48.342Z,20.40
2019-05-22T18:01:17.128Z,20.40
2019-05-22T18:03:44.947Z,20.30
2019-05-22T18:06:13.841Z,20.30
2019-05-22T18:08:42.773Z,20.30
2019-05-22T18:11:10.668Z,20.30
2019-05-22T18:13:58.170Z,20.20
2019-05-22T18:16:26.509Z,20.10
2019-05-22T18:25:47.967Z,19.90
2019-05-22T18:29:21.854Z,19.80
2019-05-22T18:32:02.069Z,19.70
2019-05-22T18:35:16.664Z,19.70
2019-05-22T18:38:14.191Z,19.60
2019-05-22T18:40:39.544Z,19.50
2019-05-22T18:43:08.812Z,19.40
2019-05-22T18:45:36.747Z,19.40
2019-05-22T18:48:06.683Z,19.30
2019-05-22T18:50:35.021Z,19.30
2019-05-22T18:53:04.018Z,19.20
2019-05-22T18:55:31.832Z,19.20
2019-05-22T18:58:00.672Z,19.10
2019-05-22T19:00:29.694Z,19.10
2019-05-22T19:02:57.471Z,19.10
2019-05-22T19:05:28.726Z,19.00
2019-05-22T19:07:56.881Z,18.90
2019-05-22T19:10:25.643Z,18.90
2019-05-22T19:12:53.449Z,18.80
2019-05-22T19:15:25.362Z,18.80
2019-05-22T19:17:54.065Z,18.70
2019-05-22T19:20:21.799Z,18.60
2019-05-22T19:23:00.277Z,18.60
2019-05-22T19:25:23.403Z,18.50
2019-05-22T19:27:55.900Z,18.40
2019-05-22T19:30:24.128Z,18.40
2019-05-22T19:32:52.710Z,18.30
2019-05-22T19:35:21.740Z,18.30
2019-05-22T19:37:56.142Z,18.20
2019-05-22T19:40:24.155Z,18.20
2019-05-22T19:42:55.196Z,18.10
2019-05-22T19:45:23.053Z,18.00
2019-05-22T19:47:54.247Z,18.00
2019-05-22T19:50:24.103Z,17.90
2019-05-22T19:53:15.764Z,17.80
2019-05-22T19:55:29.621Z,17.70
2019-05-22T19:58:00.628Z,17.60
2019-05-22T20:00:30.086Z,17.60
2019-05-22T20:02:58.708Z,17.50
2019-05-22T20:05:29.545Z,17.50
2019-05-22T20:07:57.264Z,17.40
2019-05-22T20:10:26.100Z,17.40
2019-05-22T20:12:55.361Z,17.30
2019-05-22T20:15:23.655Z,17.30
2019-05-22T20:17:51.501Z,17.20
2019-05-22T20:20:20.312Z,17.20
2019-05-22T20:22:49.092Z,17.10
2019-05-22T20:25:18.709Z,17.00
2019-05-22T20:27:47.065Z,16.90
2019-05-22T20:30:17.950Z,16.90
2019-05-22T20:32:45.829Z,16.80
2019-05-22T20:35:15.708Z,16.80
2019-05-22T20:37:45.814Z,16.80
2019-05-22T20:40:15.157Z,16.70
2019-05-22T20:42:43.620Z,16.70
2019-05-22T20:45:12.545Z,16.60
2019-05-22T20:47:43.439Z,16.60
2019-05-22T20:50:12.355Z,16.50
2019-05-22T20:52:40.345Z,16.50
2019-05-22T20:55:09.146Z,16.50
2019-05-22T20:57:37.463Z,16.40
2019-05-22T21:00:08.461Z,16.30
2019-05-22T21:02:36.659Z,16.30
2019-05-22T21:05:06.950Z,16.20
2019-05-22T21:07:40.355Z,16.10
2019-05-22T21:10:08.547Z,16.10
2019-05-22T21:12:36.659Z,16.00
2019-05-22T21:15:05.089Z,16.00
2019-05-22T21:17:32.776Z,15.90
2019-05-22T21:20:00.968Z,15.90
2019-05-22T21:22:30.559Z,15.90
2019-05-22T21:24:59.634Z,15.80
2019-05-22T21:27:28.229Z,15.80
2019-05-22T21:29:56.838Z,15.70
2019-05-22T21:32:25.231Z,15.70
2019-05-22T21:34:54.495Z,15.70
2019-05-22T21:37:28.423Z,15.60
2019-05-22T21:39:56.279Z,15.60
2019-05-22T21:42:24.663Z,15.60
2019-05-22T21:44:53.083Z,15.50
2019-05-22T21:47:21.303Z,15.50
2019-05-22T21:49:52.063Z,15.40
2019-05-22T21:52:21.372Z,15.30
2019-05-22T21:54:49.160Z,15.30
2019-05-22T21:57:17.551Z,15.30
2019-05-22T21:59:45.651Z,15.30
2019-05-22T22:02:22.536Z,15.20
2019-05-22T22:04:53.219Z,15.20
2019-05-22T22:07:21.513Z,15.10
2019-05-22T22:09:49.629Z,15.10
2019-05-22T22:12:21.648Z,15.00
2019-05-22T22:14:50.906Z,14.90
2019-05-22T22:17:20.407Z,14.80
2019-05-22T22:19:49.848Z,14.80
2019-05-22T22:22:29.511Z,14.80
2019-05-22T22:24:58.293Z,14.70
2019-05-22T22:27:26.884Z,14.60
2019-05-22T22:29:55.328Z,14.50
2019-05-22T22:32:25.379Z,14.40
2019-05-22T22:34:53.724Z,14.30
2019-05-22T22:37:22.617Z,14.30
2019-05-22T22:39:56.149Z,14.20
2019-05-22T22:42:27.960Z,14.20
2019-05-22T22:44:56.954Z,14.20
2019-05-22T22:47:35.458Z,14.10
2019-05-22T22:50:05.946Z,14.00
2019-05-22T22:52:34.188Z,14.00
2019-05-22T22:55:03.548Z,14.00
2019-05-22T22:57:31.836Z,14.00
2019-05-22T22:59:59.625Z,13.90
2019-05-22T23:02:30.411Z,13.80
2019-05-22T23:04:58.939Z,13.80
2019-05-22T23:07:29.188Z,13.70
2019-05-22T23:09:58.384Z,13.70
2019-05-22T23:12:27.687Z,13.70
2019-05-22T23:14:57.879Z,13.70
2019-05-22T23:17:26.227Z,13.70
2019-05-22T23:19:53.072Z,13.70
2019-05-22T23:22:21.808Z,13.70
2019-05-22T23:24:52.967Z,13.60
2019-05-22T23:27:22.785Z,13.60
2019-05-22T23:29:51.864Z,13.50
2019-05-22T23:32:20.515Z,13.50
2019-05-22T23:34:49.491Z,13.40
2019-05-22T23:37:20.691Z,13.30
2019-05-22T23:39:52.401Z,13.30
2019-05-22T23:42:28.196Z,13.20
2019-05-22T23:44:57.480Z,13.20
2019-05-22T23:47:26.568Z,13.10
2019-05-22T23:49:55.756Z,13.00
2019-05-22T23:52:23.436Z,13.00
2019-05-22T23:54:53.457Z,12.80
2019-05-22T23:57:22.496Z,12.70
2019-05-22T23:59:56.221Z,12.60
